Time;durP1;ratioP1;P1;durP2;ratioP2;P2;SDS_P1;SDS_P2;PMS_P1;PMS_P2;Temp;Humidity;BMP_temperature;BMP_pressure;BME280_temperature;BME280_humidity;BME280_pressure;Samples;Min_cycle;Max_cycle;Signal;HPM_P1;HPM_P2
2023/12/08 00:01:14;;;;;;;14.50;11.60;;;;;;;15.04;30.62;100188.02;104952;1255;69847;-60
2023/12/08 00:03:41;;;;;;;15.20;12.30;;;;;;;15.03;30.76;100188.59;104312;1257;72617;-60
2023/12/08 00:06:08;;;;;;;17.40;12.60;;;;;;;15.00;30.82;100185.73;104790;1258;60422;-60
2023/12/08 00:08:37;;;;;;;14.50;12.20;;;;;;;15.01;30.82;100185.01;104682;1262;60758;-60
2023/12/08 00:11:04;;;;;;;15.30;12.20;;;;;;;15.01;30.80;100184.66;104662;1254;74086;-61
2023/12/08 00:13:31;;;;;;;13.80;12.10;;;;;;;14.97;30.75;100182.34;104580;1255;69320;-62
2023/12/08 00:15:58;;;;;;;14.30;12.50;;;;;;;15.01;30.76;100182.89;104506;1258;71900;-60
2023/12/08 00:18:25;;;;;;;14.80;12.40;;;;;;;15.02;30.78;100182.12;104556;1254;60828;-61
2023/12/08 00:20:53;;;;;;;14.20;11.90;;;;;;;15.02;30.87;100180.54;104542;1269;60592;-60
2023/12/08 00:23:20;;;;;;;;;;;;;;;15.07;30.69;100179.71;104507;1258;74484;-61
2023/12/08 00:25:47;;;;;;;15.50;12.30;;;;;;;15.05;30.75;100174.55;104782;1257;69251;-61
2023/12/08 00:28:14;;;;;;;12.90;11.50;;;;;;;14.94;30.70;100175.61;104566;1255;72436;-60
2023/12/08 00:30:41;;;;;;;14.50;11.40;;;;;;;14.94;30.94;100175.46;104500;1255;60812;-60
2023/12/08 00:33:08;;;;;;;13.30;11.80;;;;;;;14.90;31.03;100176.20;104344;1253;60582;-60
2023/12/08 00:35:36;;;;;;;12.60;11.20;;;;;;;14.99;30.77;100175.90;104619;1271;73120;-60
2023/12/08 00:38:03;;;;;;;13.40;11.60;;;;;;;15.09;30.75;100173.79;104589;1254;70032;-60
2023/12/08 00:40:29;;;;;;;14.30;12.10;;;;;;;14.94;30.88;100172.80;104309;1254;73485;-61
2023/12/08 00:42:56;;;;;;;13.40;11.50;;;;;;;14.93;31.06;100174.33;104259;1267;60653;-60
2023/12/08 00:45:23;;;;;;;13.90;11.90;;;;;;;14.90;31.11;100169.71;104782;1254;60556;-61
2023/12/08 00:47:50;;;;;;;13.90;12.30;;;;;;;15.00;31.08;100169.67;104618;1255;73990;-60
2023/12/08 00:50:18;;;;;;;13.90;12.50;;;;;;;15.02;30.97;100166.94;104592;1256;68634;-61
2023/12/08 00:52:46;;;;;;;13.70;12.00;;;;;;;15.01;31.03;100166.46;104656;1258;73449;-61
2023/12/08 00:55:13;;;;;;;13.90;12.20;;;;;;;14.93;30.96;100161.58;104429;1257;60465;-60
2023/12/08 00:57:40;;;;;;;14.10;11.90;;;;;;;14.95;31.05;100159.55;104580;1253;60014;-61
2023/12/08 01:02:12;;;;;;;13.70;12.20;;;;;;;13.69;33.73;100155.64;101672;1290;601320;-60
2023/12/08 01:04:40;;;;;;;;;;;;;;;15.50;30.67;100150.23;103784;1264;59042;-59
2023/12/08 01:07:08;;;;;;;;;;;;;;;15.38;30.54;100147.69;103673;1267;59469;-60
2023/12/08 01:09:36;;;;;;;12.70;11.00;;;;;;;15.33;30.66;100152.02;104018;1267;71246;-60
2023/12/08 01:12:05;;;;;;;13.30;10.90;;;;;;;15.24;30.56;100149.35;103867;1279;70023;-60
2023/12/08 01:14:33;;;;;;;12.00;10.50;;;;;;;15.17;30.76;100147.91;103757;1272;73053;-59
2023/12/08 01:17:00;;;;;;;;;;;;;;;15.14;30.80;100145.60;103626;1267;154455;-61
2023/12/08 01:19:28;;;;;;;12.80;10.90;;;;;;;15.18;30.91;100145.23;104110;1264;59498;-60
2023/12/08 01:21:56;;;;;;;12.30;10.70;;;;;;;15.15;30.77;100142.74;104107;1272;71812;-61
2023/12/08 01:24:24;;;;;;;;;;;;;;;15.02;30.96;100140.64;103884;1276;68482;-61
2023/12/08 01:26:51;;;;;;;13.20;9.80;;;;;;;15.09;30.93;100134.78;104240;1271;72359;-60
2023/12/08 01:29:19;;;;;;;12.70;11.30;;;;;;;15.14;30.88;100133.96;104204;1264;60648;-61
2023/12/08 01:31:46;;;;;;;13.90;10.50;;;;;;;15.13;30.85;100133.16;104379;1267;59695;-61
2023/12/08 01:34:14;;;;;;;12.40;10.80;;;;;;;15.16;30.99;100133.36;104572;1264;72738;-61
2023/12/08 01:36:42;;;;;;;12.30;10.70;;;;;;;15.25;30.90;100130.92;104157;1264;69001;-61
2023/12/08 01:39:11;;;;;;;15.30;11.40;;;;;;;15.14;30.91;100127.80;103928;1277;72531;-60
2023/12/08 01:41:39;;;;;;;11.80;10.50;;;;;;;15.13;30.87;100127.31;104156;1264;59822;-60
2023/12/08 01:44:07;;;;;;;11.80;10.00;;;;;;;15.17;30.92;100129.95;103956;1264;59942;-60
2023/12/08 01:46:35;;;;;;;14.70;11.80;;;;;;;15.10;31.08;100129.26;104032;1272;72816;-60
2023/12/08 01:49:03;;;;;;;12.40;10.30;;;;;;;15.09;30.94;100128.45;104025;1264;69131;-60
2023/12/08 01:51:32;;;;;;;12.50;10.40;;;;;;;15.07;30.98;100129.93;103940;1276;73377;-60
2023/12/08 01:53:59;;;;;;;12.60;10.40;;;;;;;15.09;31.00;100130.38;104035;1264;60685;-61
2023/12/08 01:56:27;;;;;;;;;;;;;;;15.14;31.14;100129.74;104271;1267;59778;-59
2023/12/08 01:58:55;;;;;;;12.20;9.80;;;;;;;15.19;30.95;100129.30;104163;1264;73031;-60
2023/12/08 02:01:22;;;;;;;12.90;11.00;;;;;;;15.16;30.91;100130.33;104203;1264;69677;-59
2023/12/08 02:03:50;;;;;;;12.00;10.60;;;;;;;15.20;30.90;100130.13;104027;1263;72446;-60
2023/12/08 02:06:18;;;;;;;12.30;10.60;;;;;;;15.20;30.83;100132.77;104352;1258;59740;-60
2023/12/08 02:08:49;;;;;;;;;;;;;;;15.18;30.83;100133.08;104261;1257;60654;-59
2023/12/08 02:11:17;;;;;;;12.20;10.40;;;;;;;15.24;31.02;100138.39;104510;1273;72793;-60
2023/12/08 02:13:45;;;;;;;13.10;10.40;;;;;;;15.26;30.87;100138.09;104412;1257;69867;-61
2023/12/08 02:16:17;;;;;;;;;;;;;;;15.29;30.76;100137.09;104390;1261;73368;-57
2023/12/08 02:18:45;;;;;;;13.50;10.20;;;;;;;15.26;30.81;100139.73;104475;1259;59660;-59
2023/12/08 02:21:13;;;;;;;11.20;9.90;;;;;;;15.28;30.70;100134.64;104137;1263;59978;-57
2023/12/08 02:23:44;;;;;;;11.70;10.20;;;;;;;15.31;30.69;100134.49;104276;1257;73697;-58
2023/12/08 02:26:11;;;;;;;11.40;10.20;;;;;;;15.35;30.82;100133.75;104514;1257;69490;-58
2023/12/08 02:28:39;;;;;;;12.20;10.10;;;;;;;15.33;30.84;100135.77;104476;1260;72498;-57
2023/12/08 02:31:10;;;;;;;11.10;9.80;;;;;;;15.24;30.84;100137.00;104466;1278;60946;-58
2023/12/08 02:33:38;;;;;;;12.10;10.60;;;;;;;15.26;30.88;100138.27;104315;1258;62104;-58
2023/12/08 02:36:06;;;;;;;12.90;10.70;;;;;;;15.29;30.69;100134.91;104254;1259;73014;-58
2023/12/08 02:38:34;;;;;;;11.10;10.00;;;;;;;15.33;30.80;100138.63;104128;1258;69357;-57
2023/12/08 02:41:01;;;;;;;;;;;;;;;15.32;30.94;100136.00;104057;1257;72998;-59
2023/12/08 02:43:29;;;;;;;10.60;9.50;;;;;;;15.31;30.82;100138.88;104296;1257;59731;-58
2023/12/08 02:45:57;;;;;;;11.50;9.70;;;;;;;15.31;30.89;100142.78;104186;1267;59854;-59
2023/12/08 02:48:24;;;;;;;9.70;8.70;;;;;;;15.29;30.81;100141.11;104214;1257;72919;-58
2023/12/08 02:50:52;;;;;;;12.00;9.90;;;;;;;15.28;30.83;100141.52;104401;1256;70045;-59
2023/12/08 02:53:20;;;;;;;;;;;;;;;15.27;30.84;100138.60;104258;1260;72346;-59
2023/12/08 02:55:48;;;;;;;10.30;9.20;;;;;;;15.30;30.83;100140.73;104162;1269;59759;-59
2023/12/08 02:58:15;;;;;;;10.60;8.90;;;;;;;15.17;30.83;100136.29;104378;1262;60105;-58
2023/12/08 03:00:43;;;;;;;10.80;9.40;;;;;;;15.13;30.97;100137.23;104814;1252;72793;-58
2023/12/08 03:03:11;;;;;;;11.40;8.80;;;;;;;15.09;31.09;100137.80;104428;1257;70234;-59
2023/12/08 03:05:39;;;;;;;11.50;8.70;;;;;;;15.15;30.89;100138.52;104507;1257;73307;-59
2023/12/08 03:08:06;;;;;;;11.10;9.30;;;;;;;15.17;30.88;100139.11;104746;1257;60990;-60
2023/12/08 03:10:34;;;;;;;10.20;9.20;;;;;;;15.21;30.95;100136.27;104432;1266;59750;-60
2023/12/08 03:13:02;;;;;;;9.90;8.90;;;;;;;15.27;30.90;100138.77;104496;1253;73659;-59
2023/12/08 03:15:29;;;;;;;;;;;;;;;15.31;30.74;100133.23;104383;1257;70093;-59
2023/12/08 03:17:57;;;;;;;;;;;;;;;15.44;30.77;100138.55;104963;1257;72381;-59
2023/12/08 03:20:25;;;;;;;9.10;8.20;;;;;;;15.40;30.80;100138.74;104640;1253;60751;-58
2023/12/08 03:22:52;;;;;;;10.40;8.40;;;;;;;15.44;30.76;100141.39;104435;1253;59756;-58
2023/12/08 03:25:20;;;;;;;;;;;;;;;15.45;30.61;100140.61;104653;1256;73280;-58
2023/12/08 03:27:48;;;;;;;8.80;7.90;;;;;;;15.41;30.80;100142.61;104482;1257;70003;-59
2023/12/08 03:30:16;;;;;;;11.10;9.10;;;;;;;15.37;30.75;100136.98;104322;1253;73068;-59
2023/12/08 03:32:43;;;;;;;11.60;9.20;;;;;;;15.52;30.74;100134.89;104549;1255;60633;-59
2023/12/08 03:35:11;;;;;;;;;;;;;;;15.54;30.56;100133.59;104362;1254;59886;-60
2023/12/08 03:37:39;;;;;;;;;;;;;;;15.57;30.57;100131.45;104541;1254;73363;-59
2023/12/08 03:40:07;;;;;;;9.00;8.00;;;;;;;15.60;30.53;100126.52;108250;1253;69734;-59
2023/12/08 03:42:36;;;;;;;9.80;7.80;;;;;;;15.51;30.65;100125.27;108324;1252;71296;-60
2023/12/08 03:45:05;;;;;;;9.10;7.80;;;;;;;15.52;30.88;100129.28;108250;1252;61234;-60
2023/12/08 03:47:33;;;;;;;9.50;8.40;;;;;;;15.51;30.93;100128.94;108321;1252;59157;-61
2023/12/08 03:50:01;;;;;;;8.80;8.00;;;;;;;15.61;30.94;100131.75;108371;1252;73699;-60
2023/12/08 03:52:28;;;;;;;8.30;7.60;;;;;;;15.69;30.85;100130.64;108247;1253;69287;-60
2023/12/08 03:54:56;;;;;;;;;;;;;;;15.56;30.99;100129.55;108260;1253;72906;-60
2023/12/08 03:57:24;;;;;;;8.40;7.50;;;;;;;15.61;30.92;100126.83;108348;1252;59105;-60
2023/12/08 03:59:52;;;;;;;10.50;8.10;;;;;;;15.61;30.87;100123.44;108344;1253;60827;-60
2023/12/08 04:02:19;;;;;;;10.70;8.30;;;;;;;15.60;30.90;100117.02;108433;1250;73289;-60
2023/12/08 04:04:47;;;;;;;;;;;;;;;15.62;30.87;100115.10;108528;1250;69598;-60
2023/12/08 04:07:14;;;;;;;;;;;;;;;15.63;30.87;100112.59;108543;1250;72527;-61
2023/12/08 04:09:43;;;;;;;9.20;7.30;;;;;;;15.64;30.97;100110.38;108457;1250;59289;-61
2023/12/08 04:12:10;;;;;;;8.20;7.30;;;;;;;15.57;30.93;100110.42;108465;1251;60688;-60
2023/12/08 04:14:38;;;;;;;7.70;6.90;;;;;;;15.61;30.90;100114.09;108520;1250;72875;-60
2023/12/08 04:17:06;;;;;;;;;;;;;;;15.64;31.03;100117.96;108504;1250;68489;-60
2023/12/08 04:19:33;;;;;;;6.70;6.00;;;;;;;15.79;30.74;100113.83;108408;1251;72419;-61
2023/12/08 04:22:01;;;;;;;;;;;;;;;15.75;30.80;100121.27;108523;1250;59334;-60
2023/12/08 04:24:29;;;;;;;8.40;6.80;;;;;;;15.80;30.82;100126.31;108517;1250;59462;-60
2023/12/08 04:26:57;;;;;;;8.20;6.80;;;;;;;15.91;30.70;100129.59;108407;1250;72814;-61
2023/12/08 04:29:24;;;;;;;;;;;;;;;15.93;30.68;100127.86;108506;1250;69158;-60
2023/12/08 04:31:52;;;;;;;7.10;6.40;;;;;;;15.99;30.48;100126.13;108351;1251;72474;-60
2023/12/08 04:34:19;;;;;;;9.00;7.80;;;;;;;15.98;30.59;100126.87;108447;1250;60580;-61
2023/12/08 04:36:47;;;;;;;;;;;;;;;15.92;30.56;100122.83;108543;1250;59750;-59
2023/12/08 04:39:15;;;;;;;;;;;;;;;15.94;30.68;100127.11;108503;1250;72148;-59
2023/12/08 04:41:42;;;;;;;7.00;6.30;;;;;;;16.00;30.46;100123.95;108371;1250;69186;-60
2023/12/08 04:44:10;;;;;;;6.90;6.20;;;;;;;15.96;30.53;100122.73;108510;1251;72647;-59
2023/12/08 04:46:38;;;;;;;7.30;6.60;;;;;;;16.00;30.52;100125.54;108401;1252;60957;-60
2023/12/08 04:49:05;;;;;;;7.60;6.60;;;;;;;16.05;30.48;100127.34;108488;1250;60044;-60
2023/12/08 04:51:35;;;;;;;7.20;6.50;;;;;;;16.10;30.55;100128.52;108358;1250;72806;-59
2023/12/08 04:54:03;;;;;;;7.40;6.70;;;;;;;16.06;30.43;100124.50;108448;1250;69273;-58
2023/12/08 04:56:30;;;;;;;7.00;6.40;;;;;;;15.75;30.77;100126.02;108489;1253;72902;-59
2023/12/08 04:58:58;;;;;;;6.80;6.10;;;;;;;15.37;31.28;100129.36;108535;1251;59015;-60
2023/12/08 05:01:26;;;;;;;10.90;6.60;;;;;;;15.33;31.31;100129.08;108379;1252;59669;-60
2023/12/08 05:03:53;;;;;;;7.30;6.10;;;;;;;15.36;31.39;100129.23;108383;1251;72117;-60
2023/12/08 05:06:23;;;;;;;7.80;6.70;;;;;;;15.46;31.37;100128.86;108435;1252;68245;-60
2023/12/08 05:08:51;;;;;;;7.10;6.40;;;;;;;15.46;31.26;100126.04;108368;1252;72071;-60
2023/12/08 05:11:18;;;;;;;7.20;6.50;;;;;;;15.40;31.48;100128.33;108471;1252;58951;-60
2023/12/08 05:13:46;;;;;;;6.20;5.60;;;;;;;15.44;31.36;100122.80;108492;1251;59990;-63
2023/12/08 05:16:15;;;;;;;;;;;;;;;15.47;31.38;100124.56;108364;1251;76444;-60
2023/12/08 05:18:42;;;;;;;8.10;6.50;;;;;;;15.51;31.20;100126.30;108553;1252;69293;-61
2023/12/08 05:21:10;;;;;;;;;;;;;;;15.52;31.26;100127.84;108449;1253;72198;-60
2023/12/08 05:23:38;;;;;;;8.50;6.50;;;;;;;15.49;31.22;100128.39;108394;1252;59109;-60
2023/12/08 05:26:06;;;;;;;7.00;6.00;;;;;;;15.48;31.22;100131.99;108402;1251;59317;-59
2023/12/08 05:28:34;;;;;;;6.90;6.30;;;;;;;15.45;31.26;100130.56;108432;1251;73238;-59
2023/12/08 05:31:02;;;;;;;7.30;6.60;;;;;;;15.47;31.23;100127.95;108389;1251;69244;-59
2023/12/08 05:33:29;;;;;;;;;;;;;;;15.37;31.13;100133.27;108488;1252;73424;-59
2023/12/08 05:35:57;;;;;;;7.00;6.30;;;;;;;15.29;31.35;100134.24;108284;1252;60783;-60
2023/12/08 05:38:26;;;;;;;7.00;6.40;;;;;;;15.27;31.43;100135.23;108317;1251;59711;-60
2023/12/08 05:40:54;;;;;;;7.20;6.50;;;;;;;15.28;31.38;100133.07;108160;1251;74034;-61
2023/12/08 05:43:21;;;;;;;;;;;;;;;15.38;31.36;100136.04;108390;1252;68521;-60
2023/12/08 05:49:11;;;;;;;6.20;5.60;;;;;;;15.48;31.41;100138.83;101412;1292;601698;-59
2023/12/08 05:51:40;;;;;;;6.90;6.10;;;;;;;15.45;31.09;100137.07;103932;1266;59632;-59
2023/12/08 05:54:07;;;;;;;6.60;5.90;;;;;;;15.44;31.18;100137.99;103685;1272;60753;-59
2023/12/08 05:56:35;;;;;;;6.90;6.10;;;;;;;15.40;31.18;100138.59;103669;1267;71938;-60
2023/12/08 05:59:03;;;;;;;;;;;;;;;15.49;31.12;100135.05;104720;1266;69307;-60
2023/12/08 06:01:30;;;;;;;8.70;6.40;;;;;;;15.48;31.09;100132.30;103893;1271;74471;-59
2023/12/08 06:03:58;;;;;;;7.00;6.10;;;;;;;15.50;31.04;100130.44;104037;1263;141767;-59
2023/12/08 06:06:27;;;;;;;6.10;5.60;;;;;;;15.49;31.01;100127.52;103838;1268;59790;-59
2023/12/08 06:08:56;;;;;;;6.40;5.70;;;;;;;15.43;30.99;100129.42;104405;1263;72078;-59
2023/12/08 06:11:23;;;;;;;;;;;;;;;15.30;31.16;100131.38;103917;1263;70201;-58
2023/12/08 06:13:51;;;;;;;7.00;5.40;;;;;;;15.24;31.26;100133.45;104126;1263;72282;-59
2023/12/08 06:16:19;;;;;;;6.90;6.30;;;;;;;15.28;31.31;100135.04;104206;1266;60496;-60
2023/12/08 06:18:47;;;;;;;7.10;6.20;;;;;;;15.22;31.32;100134.44;104197;1268;59780;-60
2023/12/08 06:21:14;;;;;;;8.20;6.70;;;;;;;15.16;31.37;100136.89;103850;1268;73654;-60
2023/12/08 06:23:42;;;;;;;;;;;;;;;15.13;31.27;100140.38;104010;1265;69808;-60
2023/12/08 06:26:10;;;;;;;;;;;;;;;15.13;31.30;100139.49;103684;1268;73401;-60
2023/12/08 06:28:38;;;;;;;6.60;5.70;;;;;;;15.13;31.45;100139.34;103715;1268;60999;-59
2023/12/08 06:31:07;;;;;;;;;;;;;;;15.05;31.56;100130.95;103947;1268;60655;-60
2023/12/08 06:33:35;;;;;;;6.80;6.10;;;;;;;15.12;31.56;100130.89;104065;1263;72901;-59
2023/12/08 06:36:04;;;;;;;7.10;6.20;;;;;;;15.14;31.37;100134.53;103947;1266;70024;-60
2023/12/08 06:38:33;;;;;;;7.20;6.50;;;;;;;15.13;31.50;100138.48;104172;1266;72400;-59
2023/12/08 06:41:01;;;;;;;7.20;6.00;;;;;;;15.08;31.54;100137.13;104440;1254;61614;-59
2023/12/08 06:43:29;;;;;;;6.60;6.00;;;;;;;15.13;31.61;100138.45;104568;1255;59803;-59
2023/12/08 06:45:56;;;;;;;8.00;6.30;;;;;;;15.23;31.51;100138.42;104604;1277;72108;-60
2023/12/08 06:48:24;;;;;;;6.30;5.60;;;;;;;15.19;31.54;100136.34;104471;1262;69532;-59
2023/12/08 06:50:52;;;;;;;6.30;5.70;;;;;;;15.14;31.59;100138.23;104417;1257;72441;-60
2023/12/08 06:53:20;;;;;;;;;;;;;;;15.20;31.48;100135.27;105188;1257;59649;-60
2023/12/08 06:55:48;;;;;;;6.30;5.50;;;;;;;15.23;31.64;100138.25;104691;1260;59750;-60
2023/12/08 06:58:15;;;;;;;9.70;5.60;;;;;;;15.22;31.67;100134.45;104307;1262;71489;-59
2023/12/08 07:00:43;;;;;;;6.00;5.50;;;;;;;15.25;31.67;100131.84;104320;1262;69823;-59
2023/12/08 07:03:11;;;;;;;;;;;;;;;15.15;31.66;100132.00;104585;1262;72415;-61
2023/12/08 07:05:39;;;;;;;6.30;5.60;;;;;;;15.10;31.74;100130.66;104125;1263;60073;-60
2023/12/08 07:08:06;;;;;;;;;;;;;;;15.06;31.85;100131.77;104860;1257;59833;-61
2023/12/08 07:10:34;;;;;;;;;;;;;;;15.15;31.70;100133.75;104438;1262;72720;-60
2023/12/08 07:13:02;;;;;;;6.20;5.60;;;;;;;15.25;31.63;100136.92;104045;1261;69024;-59
2023/12/08 07:15:29;;;;;;;6.20;5.60;;;;;;;15.30;31.63;100135.05;104893;1262;72542;-60
2023/12/08 07:17:57;;;;;;;;;;;;;;;15.36;31.59;100144.44;104850;1259;59799;-60
2023/12/08 07:20:25;;;;;;;5.90;5.30;;;;;;;15.46;31.40;100141.95;104299;1256;59758;-59
2023/12/08 07:22:52;;;;;;;6.10;5.50;;;;;;;15.52;31.26;100138.48;105085;1257;73127;-60
2023/12/08 07:25:20;;;;;;;5.60;5.00;;;;;;;15.59;31.22;100138.74;104516;1257;69101;-59
2023/12/08 07:27:48;;;;;;;7.30;6.60;;;;;;;15.66;31.23;100135.75;104956;1256;72475;-60
2023/12/08 07:30:16;;;;;;;7.30;6.60;;;;;;;15.66;31.25;100135.92;104923;1257;59575;-60
2023/12/08 07:32:43;;;;;;;;;;;;;;;15.65;31.15;100139.86;104580;1256;59850;-62
2023/12/08 07:35:11;;;;;;;6.50;5.80;;;;;;;15.60;31.22;100136.77;105196;1260;72855;-61
2023/12/08 07:37:42;;;;;;;6.80;6.10;;;;;;;15.65;31.12;100134.92;104970;1260;68329;-60
2023/12/08 07:40:11;;;;;;;6.90;6.00;;;;;;;15.68;31.24;100142.34;104851;1262;72567;-61
2023/12/08 07:42:42;;;;;;;7.10;6.40;;;;;;;15.71;31.26;100138.61;104766;1261;60797;-60
2023/12/08 07:45:10;;;;;;;6.80;6.10;;;;;;;15.76;31.18;100143.33;104399;1258;59947;-60
2023/12/08 07:47:38;;;;;;;7.30;6.20;;;;;;;15.86;31.01;100140.98;104903;1256;72938;-61
2023/12/08 07:50:06;;;;;;;6.80;6.20;;;;;;;15.89;31.07;100136.98;104347;1272;69458;-62
2023/12/08 07:52:34;;;;;;;;;;;;;;;15.83;31.09;100138.69;104889;1261;72944;-60
2023/12/08 07:55:03;;;;;;;;;;;;;;;15.81;31.17;100135.64;105236;1256;60789;-60
2023/12/08 07:57:30;;;;;;;6.60;5.90;;;;;;;15.79;31.14;100135.23;104381;1256;60154;-61
2023/12/08 07:59:58;;;;;;;6.10;5.50;;;;;;;15.51;31.40;100132.99;104367;1257;72872;-61
2023/12/08 08:02:26;;;;;;;6.10;5.50;;;;;;;15.38;31.72;100129.83;104472;1262;69357;-61
2023/12/08 08:04:54;;;;;;;6.60;5.90;;;;;;;15.34;31.72;100127.25;104196;1270;71600;-61
2023/12/08 08:07:22;;;;;;;5.90;5.30;;;;;;;15.36;31.74;100125.90;104743;1260;59630;-61
2023/12/08 08:09:51;;;;;;;7.00;6.30;;;;;;;15.40;31.76;100123.77;104467;1262;59814;-60
2023/12/08 08:12:19;;;;;;;;;;;;;;;15.40;31.80;100116.15;104407;1261;72914;-61
2023/12/08 08:14:46;;;;;;;;;;;;;;;15.42;31.74;100118.16;104661;1260;69570;-61
2023/12/08 08:17:14;;;;;;;6.50;5.70;;;;;;;15.36;31.82;100116.01;104472;1259;72524;-63
2023/12/08 08:19:43;;;;;;;6.60;6.00;;;;;;;15.42;31.80;100114.64;104395;1260;59740;-61
2023/12/08 08:22:10;;;;;;;7.50;6.60;;;;;;;15.41;31.83;100116.63;104539;1258;60685;-60
2023/12/08 08:25:01;;;;;;;6.40;5.80;;;;;;;15.43;31.80;100117.22;104385;1256;73072;-60
2023/12/08 08:27:29;;;;;;;6.10;5.50;;;;;;;15.51;31.70;100112.70;104575;1262;71903;-61
2023/12/08 08:29:58;;;;;;;6.40;5.60;;;;;;;15.47;31.81;100114.50;104451;1261;71262;-60
2023/12/08 08:32:26;;;;;;;6.50;5.70;;;;;;;15.47;31.80;100112.05;104431;1259;59778;-62
2023/12/08 08:34:53;;;;;;;;;;;;;;;15.55;31.59;100104.35;104229;1269;59777;-60
2023/12/08 08:37:25;;;;;;;6.50;5.90;;;;;;;15.60;31.78;100101.08;104345;1261;73551;-61
2023/12/08 08:39:53;;;;;;;6.70;6.00;;;;;;;15.52;31.78;100106.66;104080;1276;69795;-59
2023/12/08 08:42:21;;;;;;;9.20;6.20;;;;;;;15.46;31.90;100104.71;104924;1260;72553;-59
2023/12/08 08:44:49;;;;;;;5.80;5.30;;;;;;;15.52;31.83;100108.58;105220;1259;59711;-59
2023/12/08 08:47:19;;;;;;;5.70;5.20;;;;;;;15.49;31.80;100104.66;104295;1257;59962;-59
2023/12/08 08:49:47;;;;;;;6.40;5.80;;;;;;;15.49;31.88;100107.33;104331;1273;72850;-59
2023/12/08 08:52:15;;;;;;;6.70;5.60;;;;;;;15.52;31.87;100105.59;104325;1260;69091;-59
2023/12/08 08:54:42;;;;;;;6.10;5.40;;;;;;;15.65;31.72;100105.73;104689;1261;72367;-60
2023/12/08 08:57:11;;;;;;;8.70;5.90;;;;;;;15.59;31.85;100102.76;104814;1262;59768;-60
2023/12/08 08:59:39;;;;;;;6.80;6.10;;;;;;;15.59;31.81;100101.16;104484;1256;60728;-60
2023/12/08 09:02:07;;;;;;;6.10;5.60;;;;;;;15.65;31.71;100100.83;104327;1262;72749;-61
2023/12/08 09:04:34;;;;;;;;;;;;;;;15.61;31.71;100096.81;104314;1260;70089;-61
2023/12/08 09:07:03;;;;;;;6.60;5.10;;;;;;;15.62;31.74;100094.26;104611;1260;71376;-61
2023/12/08 09:09:31;;;;;;;6.80;6.10;;;;;;;15.61;31.86;100090.77;104516;1262;60609;-60
2023/12/08 09:11:59;;;;;;;8.80;5.80;;;;;;;15.60;31.90;100089.77;104736;1262;59842;-60
2023/12/08 09:14:27;;;;;;;6.10;5.60;;;;;;;15.64;31.74;100090.77;104362;1276;73651;-59
2023/12/08 09:16:55;;;;;;;6.60;6.00;;;;;;;15.60;31.90;100090.64;104169;1262;69269;-60
2023/12/08 09:19:23;;;;;;;6.20;5.60;;;;;;;15.51;32.00;100088.34;104487;1256;72537;-60
2023/12/08 09:21:51;;;;;;;;;;;;;;;15.50;32.17;100085.04;104488;1262;60592;-60
2023/12/08 09:24:21;;;;;;;6.70;6.10;;;;;;;15.52;32.11;100086.48;104788;1256;60116;-60
2023/12/08 09:26:49;;;;;;;7.50;6.40;;;;;;;15.51;32.05;100085.86;104231;1266;74590;-61
2023/12/08 09:29:17;;;;;;;7.00;6.40;;;;;;;15.52;32.18;100083.83;104793;1256;70025;-60
2023/12/08 09:31:45;;;;;;;6.60;5.90;;;;;;;15.63;32.03;100078.15;104894;1259;74510;-61
2023/12/08 09:34:13;;;;;;;6.70;6.10;;;;;;;15.70;31.93;100077.52;104262;1262;60687;-62
2023/12/08 09:36:41;;;;;;;6.60;6.00;;;;;;;15.85;31.95;100080.28;104565;1275;59923;-61
2023/12/08 09:39:28;;;;;;;6.10;5.50;;;;;;;15.81;31.96;100078.19;104820;1260;73750;-61
2023/12/08 09:41:57;;;;;;;;;;;;;;;15.71;31.96;100079.45;104232;1273;70855;-61
2023/12/08 09:44:25;;;;;;;6.60;5.90;;;;;;;15.75;31.97;100082.73;105129;1255;72484;-61
2023/12/08 09:46:55;;;;;;;7.50;5.70;;;;;;;15.76;31.89;100082.00;104997;1263;59653;-62
2023/12/08 09:49:41;;;;;;;5.90;5.30;;;;;;;15.71;31.93;100075.20;104382;1261;60521;-61
2023/12/08 09:52:08;;;;;;;6.10;5.50;;;;;;;15.79;31.83;100078.14;104554;1260;73514;-60
2023/12/08 09:54:36;;;;;;;;;;;;;;;15.76;31.94;100077.57;105155;1262;69044;-61
2023/12/08 09:57:04;;;;;;;5.80;5.20;;;;;;;15.77;32.06;100074.88;104553;1262;72096;-60
2023/12/08 09:59:31;;;;;;;;;;;;;;;15.77;31.95;100075.77;104196;1271;60636;-60
2023/12/08 10:01:59;;;;;;;6.20;5.50;;;;;;;15.78;32.10;100073.23;104700;1260;60728;-60
2023/12/08 10:04:27;;;;;;;6.50;5.40;;;;;;;15.82;31.90;100075.63;105810;1261;72597;-60
2023/12/08 10:06:55;;;;;;;7.70;6.20;;;;;;;15.93;31.75;100077.29;104385;1262;69225;-60
2023/12/08 10:09:23;;;;;;;6.70;6.10;;;;;;;15.99;31.76;100075.90;104758;1268;72731;-60
2023/12/08 10:11:51;;;;;;;6.40;5.80;;;;;;;16.00;31.75;100073.21;104324;1257;60552;-59
2023/12/08 10:14:19;;;;;;;;;;;;;;;16.03;31.71;100068.05;105143;1260;60650;-60
2023/12/08 10:16:47;;;;;;;6.70;6.10;;;;;;;16.05;31.73;100067.95;104683;1261;74076;-60
2023/12/08 10:19:15;;;;;;;6.50;5.90;;;;;;;16.09;31.73;100065.23;104393;1260;69997;-60
2023/12/08 10:21:43;;;;;;;6.80;6.10;;;;;;;16.14;31.71;100068.11;104128;1263;71999;-60
2023/12/08 10:24:11;;;;;;;6.40;5.80;;;;;;;16.09;31.68;100068.79;105163;1257;60570;-61
2023/12/08 10:26:39;;;;;;;6.00;5.40;;;;;;;16.06;31.69;100071.75;105073;1256;60549;-60
2023/12/08 10:29:08;;;;;;;7.50;6.30;;;;;;;16.06;31.73;100071.45;104883;1259;74404;-60
2023/12/08 10:31:36;;;;;;;6.40;5.80;;;;;;;16.07;31.76;100068.41;104499;1261;68245;-59
2023/12/08 10:34:04;;;;;;;6.20;5.60;;;;;;;16.12;31.76;100063.28;104525;1257;72480;-60
2023/12/08 10:36:32;;;;;;;7.30;6.60;;;;;;;16.21;31.68;100063.33;104631;1255;60614;-59
2023/12/08 10:39:00;;;;;;;7.00;6.40;;;;;;;16.32;31.58;100057.49;105113;1257;60510;-59
2023/12/08 10:41:28;;;;;;;7.20;5.90;;;;;;;16.32;31.46;100059.10;105334;1257;73819;-59
2023/12/08 10:43:55;;;;;;;;;;;;;;;16.33;31.52;100058.15;105016;1252;71040;-59
2023/12/08 10:46:23;;;;;;;6.20;5.60;;;;;;;16.42;31.48;100056.72;107023;1253;71826;-67
2023/12/08 10:48:51;;;;;;;6.10;5.60;;;;;;;17.27;30.46;100054.67;106228;1258;60741;-63
2023/12/08 10:51:18;;;;;;;;;;;;;;;16.78;30.90;100051.91;106628;1253;60978;-63
2023/12/08 10:53:47;;;;;;;7.90;6.10;;;;;;;16.86;30.66;100053.91;106492;1253;74627;-64
2023/12/08 10:56:16;;;;;;;6.00;5.50;;;;;;;16.86;30.73;100057.79;106121;1253;71017;-63
2023/12/08 10:58:44;;;;;;;8.20;6.60;;;;;;;16.81;30.76;100060.19;106014;1253;72577;-62
2023/12/08 11:01:13;;;;;;;6.50;5.80;;;;;;;16.70;30.72;100060.34;106093;1253;60634;-62
2023/12/08 11:03:42;;;;;;;6.20;5.70;;;;;;;16.69;30.84;100061.63;106444;1254;60448;-60
2023/12/08 11:06:28;;;;;;;7.00;6.30;;;;;;;16.60;31.03;100061.29;106221;1253;74027;-59
2023/12/08 11:08:57;;;;;;;6.60;6.00;;;;;;;16.55;31.11;100063.72;106244;1259;69445;-59
2023/12/08 11:11:26;;;;;;;6.90;6.20;;;;;;;16.52;31.24;100063.76;106418;1253;74109;-61
2023/12/08 11:14:18;;;;;;;6.70;6.10;;;;;;;16.52;31.19;100065.31;105976;1260;59743;-61
2023/12/08 11:16:50;;;;;;;6.60;6.00;;;;;;;16.54;31.20;100063.98;106423;1257;62262;-61
2023/12/08 11:19:17;;;;;;;7.50;6.70;;;;;;;16.68;31.05;100060.13;106013;1256;72884;-60
2023/12/08 11:21:47;;;;;;;6.80;6.20;;;;;;;16.71;31.08;100062.56;106207;1258;69118;-60
2023/12/08 11:24:15;;;;;;;;;;;;;;;16.64;31.08;100060.54;106800;1253;72354;-61
2023/12/08 11:27:02;;;;;;;6.40;5.80;;;;;;;16.62;31.13;100063.11;106315;1251;61732;-59
2023/12/08 11:29:55;;;;;;;6.60;6.10;;;;;;;16.52;31.06;100061.45;106614;1252;60535;-59
2023/12/08 11:32:32;;;;;;;7.00;6.30;;;;;;;16.41;31.12;100059.65;106311;1253;74317;-59
2023/12/08 11:35:01;;;;;;;;;;;;;;;16.40;31.21;100069.23;106252;1254;69580;-60
2023/12/08 11:37:29;;;;;;;6.00;5.40;;;;;;;16.44;31.19;100070.95;106335;1253;73086;-59